createdAt,value
2023-01-23T00:03:01.850Z,18.70
2023-01-23T00:07:03.636Z,19.97
2023-01-23T00:11:07.426Z,18.63
2023-01-23T00:15:11.387Z,20.03
2023-01-23T00:19:13.201Z,19.17
2023-01-23T00:23:15.084Z,19.40
2023-01-23T00:27:16.927Z,20.40
2023-01-23T00:31:25.268Z,19.50
2023-01-23T00:35:27.132Z,18.90
2023-01-23T00:39:28.993Z,20.50
2023-01-23T00:43:31.128Z,22.23
2023-01-23T00:47:32.920Z,21.37
2023-01-23T00:51:34.957Z,17.67
2023-01-23T00:55:36.798Z,20.77
2023-01-23T00:59:38.646Z,17.97
2023-01-23T01:03:40.561Z,17.43
2023-01-23T01:07:42.325Z,18.30
2023-01-23T01:11:44.243Z,16.57
2023-01-23T01:15:46.200Z,21.63
2023-01-23T01:19:48.321Z,18.67
2023-01-23T01:23:50.093Z,16.83
2023-01-23T01:27:51.857Z,18.50
2023-01-23T01:31:53.670Z,20.70
2023-01-23T01:35:58.137Z,17.90
2023-01-23T01:39:59.955Z,18.47
2023-01-23T01:44:01.881Z,20.20
2023-01-23T01:48:03.784Z,18.60
2023-01-23T01:52:07.406Z,16.80
2023-01-23T01:56:11.188Z,17.20
2023-01-23T02:00:18.930Z,19.03
2023-01-23T02:04:20.867Z,18.23
2023-01-23T02:08:23.675Z,17.70
2023-01-23T02:12:26.959Z,17.60
2023-01-23T02:16:32.807Z,17.97
2023-01-23T02:20:34.611Z,16.77
2023-01-23T02:24:42.667Z,19.50
2023-01-23T02:28:47.036Z,18.07
2023-01-23T02:32:48.984Z,19.57
2023-01-23T02:36:50.775Z,19.00
2023-01-23T02:40:52.693Z,17.07
2023-01-23T02:44:58.074Z,16.90
2023-01-23T02:49:00.055Z,15.97
2023-01-23T02:53:01.926Z,19.60
2023-01-23T02:57:04.387Z,16.63
2023-01-23T03:01:06.379Z,17.77
2023-01-23T03:05:08.335Z,15.67
2023-01-23T03:09:12.627Z,22.33
2023-01-23T03:13:14.336Z,17.33
2023-01-23T03:17:16.139Z,16.87
2023-01-23T03:21:17.919Z,17.60
2023-01-23T03:25:19.900Z,16.27
2023-01-23T03:29:42.962Z,18.47
2023-01-23T03:33:44.932Z,17.20
2023-01-23T03:37:48.107Z,17.17
2023-01-23T03:41:50.078Z,17.87
2023-01-23T03:45:51.960Z,16.40
2023-01-23T03:49:53.845Z,19.17
2023-01-23T03:53:55.676Z,16.47
2023-01-23T03:57:57.502Z,16.63
2023-01-23T04:02:00.773Z,16.17
2023-01-23T04:06:02.681Z,16.20
2023-01-23T04:10:04.915Z,18.20
2023-01-23T04:14:06.795Z,18.40
2023-01-23T04:18:08.522Z,18.97
2023-01-23T04:22:10.471Z,18.37
2023-01-23T04:26:12.897Z,21.23
2023-01-23T04:30:14.772Z,17.50
2023-01-23T04:34:16.595Z,18.60
2023-01-23T04:38:18.568Z,16.40
2023-01-23T04:42:20.407Z,19.47
2023-01-23T04:46:22.630Z,18.93
2023-01-23T04:50:24.409Z,18.67
2023-01-23T04:54:26.245Z,17.83
2023-01-23T04:58:28.115Z,20.70
2023-01-23T05:02:30.182Z,19.77
2023-01-23T05:06:32.254Z,18.60
2023-01-23T05:10:34.200Z,18.97
2023-01-23T05:14:36.028Z,17.90
2023-01-23T05:18:37.815Z,17.53
2023-01-23T05:22:52.420Z,19.40
2023-01-23T05:26:54.487Z,17.83
2023-01-23T05:30:57.264Z,18.30
2023-01-23T05:34:59.303Z,19.00
2023-01-23T05:39:01.295Z,18.83
2023-01-23T05:43:04.582Z,18.70
2023-01-23T05:47:06.445Z,21.07
2023-01-23T05:51:08.409Z,20.87
2023-01-23T05:55:10.495Z,20.60
2023-01-23T05:59:17.912Z,22.30
2023-01-23T06:03:21.027Z,16.90
2023-01-23T06:07:25.307Z,19.77
2023-01-23T06:11:30.322Z,19.40
2023-01-23T06:15:32.343Z,23.43
2023-01-23T06:19:34.281Z,21.63
2023-01-23T06:23:36.269Z,19.03
2023-01-23T06:27:38.135Z,20.97
2023-01-23T06:31:39.999Z,22.20
2023-01-23T06:35:41.790Z,24.07
2023-01-23T06:39:43.546Z,29.50
2023-01-23T06:43:45.410Z,30.20
2023-01-23T06:47:47.197Z,28.13
2023-01-23T06:51:49.050Z,28.53
2023-01-23T06:55:54.009Z,26.97
2023-01-23T06:59:55.734Z,26.13
2023-01-23T07:03:57.486Z,27.87
2023-01-23T07:07:59.273Z,22.50
2023-01-23T07:12:01.224Z,27.70
2023-01-23T07:16:03.680Z,28.87
2023-01-23T07:20:06.384Z,24.57
2023-01-23T07:24:08.177Z,28.87
2023-01-23T07:28:10.084Z,28.33
2023-01-23T07:32:11.993Z,29.13
2023-01-23T07:36:14.784Z,27.33
2023-01-23T07:40:16.703Z,21.27
2023-01-23T07:44:20.867Z,29.10
2023-01-23T07:48:22.726Z,22.97
2023-01-23T07:52:24.524Z,26.97
2023-01-23T07:56:26.329Z,23.90
2023-01-23T08:00:29.888Z,24.50
2023-01-23T08:04:32.013Z,29.20
2023-01-23T08:08:33.822Z,29.90
2023-01-23T08:12:37.007Z,30.27
2023-01-23T08:16:38.876Z,24.90
2023-01-23T08:20:40.711Z,27.27
2023-01-23T08:24:47.449Z,27.77
2023-01-23T08:28:50.556Z,27.90
2023-01-23T08:32:52.375Z,27.43
2023-01-23T08:36:57.467Z,27.80
2023-01-23T08:41:01.083Z,22.73
2023-01-23T08:45:03.012Z,24.50
2023-01-23T08:49:07.270Z,26.97
2023-01-23T08:53:09.105Z,28.57
2023-01-23T08:57:11.043Z,29.47
2023-01-23T09:01:17.454Z,25.73
2023-01-23T09:05:19.316Z,24.13
2023-01-23T09:09:21.116Z,32.20
2023-01-23T09:13:22.942Z,28.60
2023-01-23T09:17:25.015Z,28.13
2023-01-23T09:21:31.845Z,25.00
2023-01-23T09:25:33.662Z,28.57
2023-01-23T09:29:36.214Z,28.60
2023-01-23T09:33:38.151Z,25.40
2023-01-23T09:37:58.884Z,27.07
2023-01-23T09:42:11.071Z,26.60
2023-01-23T09:46:20.983Z,25.17
2023-01-23T09:50:28.594Z,27.60
2023-01-23T09:54:38.027Z,26.63
2023-01-23T09:58:49.037Z,24.43
2023-01-23T10:02:53.400Z,26.30
2023-01-23T10:07:26.265Z,25.33
2023-01-23T10:11:58.858Z,25.20
2023-01-23T10:16:51.382Z,28.70
2023-01-23T10:21:39.415Z,28.03
2023-01-23T10:25:41.336Z,28.07
2023-01-23T10:29:51.900Z,31.23
2023-01-23T10:34:37.822Z,26.20
2023-01-23T10:39:02.324Z,27.57
2023-01-23T10:43:12.377Z,27.07
2023-01-23T10:47:52.027Z,24.93
2023-01-23T10:52:02.501Z,25.30
2023-01-23T10:56:04.674Z,26.37
2023-01-23T11:00:20.529Z,23.77
2023-01-23T11:04:34.001Z,24.00
2023-01-23T11:08:57.451Z,25.77
2023-01-23T11:13:00.908Z,28.37
2023-01-23T11:17:21.236Z,24.50
2023-01-23T11:21:28.097Z,23.87
2023-01-23T11:25:45.529Z,24.70
2023-01-23T11:30:01.081Z,26.07
2023-01-23T11:34:15.588Z,26.70
2023-01-23T11:38:27.161Z,23.70
2023-01-23T11:42:44.646Z,26.80
2023-01-23T11:47:23.549Z,29.70
2023-01-23T11:51:50.631Z,25.13
2023-01-23T11:56:01.630Z,28.83
2023-01-23T12:00:13.504Z,26.90
2023-01-23T12:04:36.536Z,28.40
2023-01-23T12:08:43.374Z,27.07
2023-01-23T12:13:26.549Z,25.87
2023-01-23T12:17:43.973Z,28.03
2023-01-23T12:22:07.494Z,28.57
2023-01-23T12:26:19.683Z,29.23
2023-01-23T12:30:48.715Z,26.87
2023-01-23T12:35:27.601Z,27.77
2023-01-23T12:39:48.047Z,29.43
2023-01-23T12:44:45.850Z,31.20
2023-01-23T12:49:06.032Z,30.57
2023-01-23T12:53:18.229Z,27.73
2023-01-23T13:02:41.029Z,27.00
2023-01-23T13:07:16.928Z,25.93
2023-01-23T13:11:46.448Z,25.83
2023-01-23T13:16:20.735Z,25.83
2023-01-23T13:21:21.112Z,28.23
2023-01-23T13:25:28.585Z,28.07
2023-01-23T13:29:52.777Z,28.23
2023-01-23T13:34:06.747Z,30.33
2023-01-23T13:38:22.030Z,29.77
2023-01-23T13:42:26.815Z,32.87
2023-01-23T14:23:03.482Z,35.80
2023-01-23T14:27:11.566Z,41.53
2023-01-23T14:31:22.822Z,41.43
2023-01-23T14:35:26.690Z,41.77
2023-01-23T14:39:30.270Z,39.73
2023-01-23T14:43:33.284Z,44.07
2023-01-23T14:48:11.422Z,41.97
2023-01-23T14:52:25.920Z,42.10
2023-01-23T14:56:36.897Z,42.40
2023-01-23T15:00:38.678Z,39.60
2023-01-23T15:04:45.653Z,37.03
2023-01-23T15:08:50.697Z,40.10
2023-01-23T15:13:18.031Z,44.53
2023-01-23T15:17:21.170Z,42.80
2023-01-23T15:21:40.643Z,41.80
2023-01-23T15:25:42.862Z,45.73
2023-01-23T15:29:44.909Z,47.70
2023-01-23T15:33:47.705Z,48.50
2023-01-23T15:37:52.125Z,45.57
2023-01-23T15:42:02.534Z,46.47
2023-01-23T15:46:04.554Z,42.23
2023-01-23T15:50:06.857Z,46.33
2023-01-23T15:54:20.231Z,44.93
2023-01-23T15:58:29.839Z,41.10
2023-01-23T16:02:34.529Z,47.37
2023-01-23T16:06:38.069Z,42.37
2023-01-23T16:10:40.458Z,45.47
2023-01-23T16:14:44.736Z,47.17
2023-01-23T16:18:46.481Z,48.83
2023-01-23T16:22:54.720Z,45.43
2023-01-23T16:26:56.700Z,46.77
2023-01-23T16:30:59.208Z,43.07
2023-01-23T16:35:01.218Z,43.13
2023-01-23T16:39:04.040Z,47.37
2023-01-23T16:43:24.177Z,51.23
2023-01-23T16:47:26.954Z,43.33
2023-01-23T16:51:33.489Z,44.73
2023-01-23T17:00:43.704Z,43.57
2023-01-23T17:04:52.804Z,43.60
2023-01-23T17:09:15.723Z,42.03
2023-01-23T17:13:18.467Z,41.10
2023-01-23T17:18:58.973Z,35.67
2023-01-23T17:23:55.643Z,38.33
2023-01-23T17:27:55.236Z,35.10
2023-01-23T17:33:26.563Z,42.50
2023-01-23T17:48:21.017Z,35.33
2023-01-23T17:52:59.003Z,37.83
2023-01-23T18:02:03.108Z,36.10
2023-01-23T18:06:16.775Z,33.57
2023-01-23T18:10:40.289Z,35.17
2023-01-23T18:20:31.269Z,32.43
2023-01-23T18:24:45.557Z,36.87
2023-01-23T18:29:50.938Z,36.67
2023-01-23T18:34:53.405Z,35.10
2023-01-23T18:39:42.124Z,36.77
2023-01-23T18:51:32.904Z,32.27
2023-01-23T19:02:11.800Z,39.10
2023-01-23T19:11:37.300Z,37.10
2023-01-23T19:16:07.057Z,36.97
2023-01-23T19:20:43.010Z,39.40
2023-01-23T19:24:54.617Z,36.10
2023-01-23T19:29:20.893Z,34.73
2023-01-23T19:33:28.589Z,37.67
2023-01-23T19:37:49.310Z,37.50
2023-01-23T19:41:53.484Z,38.63
2023-01-23T19:46:00.492Z,36.43
2023-01-23T19:50:18.033Z,38.70
2023-01-23T19:55:20.553Z,39.43
2023-01-23T19:59:54.613Z,41.60
2023-01-23T20:04:28.029Z,42.80
2023-01-23T20:08:34.159Z,36.80
2023-01-23T20:12:47.487Z,37.80
2023-01-23T20:16:50.815Z,42.87
2023-01-23T20:20:59.158Z,41.03
2023-01-23T20:25:01.261Z,42.93
2023-01-23T20:29:04.102Z,42.40
2023-01-23T20:33:10.836Z,43.90
2023-01-23T20:37:16.904Z,46.40
2023-01-23T20:41:19.745Z,37.47
2023-01-23T20:45:21.906Z,45.63
2023-01-23T20:49:24.147Z,46.30
2023-01-23T20:53:32.068Z,44.67
2023-01-23T20:58:00.003Z,44.30
2023-01-23T21:02:20.442Z,44.27
2023-01-23T21:06:22.919Z,39.27
2023-01-23T21:10:24.732Z,41.33
2023-01-23T21:14:26.703Z,40.20
2023-01-23T21:18:28.689Z,45.63
2023-01-23T21:22:30.395Z,42.37
2023-01-23T21:26:32.188Z,39.50
2023-01-23T21:30:33.992Z,44.90
2023-01-23T21:34:35.777Z,46.90
2023-01-23T21:38:38.024Z,44.97
2023-01-23T21:42:39.750Z,48.33
2023-01-23T21:46:41.706Z,48.83
2023-01-23T21:50:43.426Z,44.93
2023-01-23T21:54:45.168Z,39.97
2023-01-23T21:58:47.349Z,52.60
2023-01-23T22:02:49.189Z,50.47
2023-01-23T22:06:55.676Z,47.27
2023-01-23T22:10:57.498Z,42.83
2023-01-23T22:14:59.367Z,46.60
2023-01-23T22:19:01.145Z,47.93
2023-01-23T22:23:02.887Z,49.90
2023-01-23T22:27:04.768Z,48.20
2023-01-23T22:31:16.818Z,44.73
2023-01-23T22:35:18.727Z,50.43
2023-01-23T22:39:20.576Z,47.10
2023-01-23T22:43:22.368Z,47.77
2023-01-23T22:47:24.268Z,52.83
2023-01-23T22:51:27.113Z,49.27
2023-01-23T22:55:28.892Z,45.20
2023-01-23T22:59:30.711Z,51.83
2023-01-23T23:03:33.556Z,44.57
2023-01-23T23:07:38.868Z,56.23
2023-01-23T23:11:40.900Z,47.60
2023-01-23T23:15:45.086Z,50.97
2023-01-23T23:19:46.810Z,50.20
2023-01-23T23:23:48.729Z,50.00
2023-01-23T23:27:50.542Z,51.30
2023-01-23T23:31:52.486Z,50.10
2023-01-23T23:35:54.341Z,49.00
2023-01-23T23:39:56.100Z,51.80
2023-01-23T23:43:57.887Z,53.70
2023-01-23T23:47:59.787Z,48.20
2023-01-23T23:52:01.670Z,54.47
2023-01-23T23:56:04.322Z,51.53
